Time;durP1;ratioP1;P1;durP2;ratioP2;P2;SDS_P1;SDS_P2;PMS_P1;PMS_P2;Temp;Humidity;BMP_temperature;BMP_pressure;BME280_temperature;BME280_humidity;BME280_pressure;Samples;Min_cycle;Max_cycle;Signal;HPM_P1;HPM_P2
2024/04/16 00:01:05;;;;;;;12.20;4.78;;;538.00;1689.60;;;;;;5414963;26;20431;-74
2024/04/16 00:03:32;;;;;;;9.15;4.30;;;537.90;1689.60;;;;;;5407688;26;20004;-75
2024/04/16 00:05:58;;;;;;;10.95;4.90;;;512.90;1689.60;;;;;;5400159;26;20016;-74
2024/04/16 00:08:24;;;;;;;8.82;5.55;;;512.90;1715.20;;;;;;5401305;26;20072;-73
2024/04/16 00:10:50;;;;;;;8.55;4.40;;;512.80;1740.80;;;;;;5398968;26;20011;-74
2024/04/16 00:13:16;;;;;;;13.75;4.75;;;512.50;1740.80;;;;;;5403909;26;19996;-75
2024/04/16 00:15:42;;;;;;;7.93;5.47;;;512.00;1715.20;;;;;;5396084;26;19996;-75
2024/04/16 00:18:08;;;;;;;12.77;4.93;;;512.00;1766.40;;;;;;5400273;26;19992;-75
2024/04/16 00:20:34;;;;;;;9.10;4.93;;;487.30;1766.40;;;;;;5411941;26;20446;-74
2024/04/16 00:23:00;;;;;;;13.43;5.15;;;487.30;1766.40;;;;;;5412348;26;19991;-74
2024/04/16 00:25:27;;;;;;;13.10;5.18;;;487.10;1792.00;;;;;;5407426;26;20016;-75
2024/04/16 00:27:52;;;;;;;7.68;4.97;;;487.20;1766.40;;;;;;5395159;26;19995;-74
2024/04/16 00:30:18;;;;;;;13.57;5.38;;;487.10;1766.40;;;;;;5405107;26;20008;-75
2024/04/16 00:32:44;;;;;;;11.18;5.15;;;487.20;1792.00;;;;;;5413968;26;20006;-74
2024/04/16 00:35:10;;;;;;;10.27;5.47;;;487.10;1817.60;;;;;;5399352;26;20014;-74
2024/04/16 00:37:36;;;;;;;10.93;5.75;;;487.10;1792.00;;;;;;5392828;26;19991;-74
2024/04/16 00:40:02;;;;;;;15.52;5.97;;;487.00;1817.60;;;;;;5417565;26;20320;-75
2024/04/16 00:42:28;;;;;;;15.57;6.05;;;487.00;1792.00;;;;;;5419052;26;20031;-76
2024/04/16 00:44:54;;;;;;;11.93;5.72;;;486.80;1817.60;;;;;;5393418;26;19996;-74
2024/04/16 00:47:20;;;;;;;12.05;6.13;;;486.70;1817.60;;;;;;5383090;26;20007;-74
2024/04/16 00:49:46;;;;;;;12.52;6.55;;;486.50;1817.60;;;;;;5383564;26;19996;-74
2024/04/16 00:52:12;;;;;;;11.23;6.65;;;486.40;1792.00;;;;;;5383336;26;20331;-74
2024/04/16 00:54:38;;;;;;;13.45;6.05;;;461.70;1817.60;;;;;;5383309;26;19996;-76
2024/04/16 00:57:04;;;;;;;16.30;6.78;;;486.40;1843.20;;;;;;5383527;26;20007;-75
2024/04/16 00:59:33;;;;;;;12.50;5.15;;;486.40;1843.20;;;;;;5381938;26;20004;-74
2024/04/16 01:01:58;;;;;;;12.43;5.97;;;486.50;1817.60;;;;;;5383439;26;19992;-74
2024/04/16 01:04:26;;;;;;;7.70;4.60;;;486.50;1792.00;;;;;;5383393;26;20000;-74
2024/04/16 01:06:52;;;;;;;13.30;6.55;;;486.50;1792.00;;;;;;5382956;26;19996;-74
2024/04/16 01:09:18;;;;;;;11.35;5.57;;;486.50;1792.00;;;;;;5383128;26;20542;-75
2024/04/16 01:11:48;;;;;;;10.93;5.03;;;486.40;1766.40;;;;;;5383241;26;20413;-76
2024/04/16 01:14:14;;;;;;;11.85;6.13;;;486.40;1792.00;;;;;;5383172;26;20329;-75
2024/04/16 01:16:40;;;;;;;13.25;5.50;;;486.70;1766.40;;;;;;5383388;26;20012;-74
2024/04/16 01:19:08;;;;;;;9.38;5.78;;;486.80;1766.40;;;;;;5383090;26;20061;-75
2024/04/16 01:21:34;;;;;;;9.73;5.57;;;487.10;1766.40;;;;;;5383107;26;19996;-74
2024/04/16 01:24:00;;;;;;;12.05;6.25;;;487.10;1740.80;;;;;;5383066;26;20011;-74
2024/04/16 01:26:26;;;;;;;7.38;5.10;;;487.00;1740.80;;;;;;5382795;26;19996;-75
2024/04/16 01:28:52;;;;;;;15.60;6.85;;;486.80;1792.00;;;;;;5383045;26;20004;-74
2024/04/16 01:31:17;;;;;;;14.07;5.85;;;486.80;1817.60;;;;;;5383037;26;20459;-75
2024/04/16 01:33:43;;;;;;;8.98;5.45;;;486.80;1792.00;;;;;;5383132;26;20016;-75
2024/04/16 01:36:10;;;;;;;11.95;5.78;;;486.70;1817.60;;;;;;5382705;26;20073;-74
2024/04/16 01:38:36;;;;;;;10.75;6.03;;;486.70;1792.00;;;;;;5382547;26;20008;-74
2024/04/16 01:41:02;;;;;;;11.80;5.35;;;486.70;1792.00;;;;;;5382909;26;20003;-74
2024/04/16 01:43:28;;;;;;;17.05;6.18;;;486.70;1792.00;;;;;;5382714;26;20000;-74
2024/04/16 01:45:54;;;;;;;11.93;5.93;;;486.70;1817.60;;;;;;5383042;26;19996;-74
2024/04/16 01:48:20;;;;;;;15.18;6.60;;;486.70;1817.60;;;;;;5385085;26;20001;-74
2024/04/16 01:50:46;;;;;;;13.77;6.43;;;486.50;1843.20;;;;;;5418364;26;19991;-74
2024/04/16 01:53:12;;;;;;;11.75;6.20;;;486.40;1868.80;;;;;;5417949;26;20060;-73
2024/04/16 01:55:38;;;;;;;14.55;6.28;;;486.40;1894.40;;;;;;5417852;26;20336;-74
2024/04/16 01:58:06;;;;;;;18.60;6.68;;;461.50;1920.00;;;;;;5418180;26;19995;-76
2024/04/16 02:00:32;;;;;;;9.07;6.22;;;461.40;1945.60;;;;;;5417855;26;20007;-74
2024/04/16 02:03:01;;;;;;;12.90;6.35;;;461.30;1971.20;;;;;;5416381;26;20312;-74
2024/04/16 02:05:26;;;;;;;14.93;7.28;;;461.10;1996.80;;;;;;5418006;26;19995;-74
2024/04/16 02:07:52;;;;;;;12.30;6.78;;;461.10;1996.80;;;;;;5417611;26;20014;-74
2024/04/16 02:10:18;;;;;;;14.00;7.28;;;461.00;1996.80;;;;;;5417860;26;19991;-75
2024/04/16 02:12:44;;;;;;;11.70;7.03;;;461.00;1971.20;;;;;;5417938;26;19999;-74
2024/04/16 02:15:10;;;;;;;14.88;6.90;;;460.90;1996.80;;;;;;5417661;26;20347;-74
2024/04/16 02:17:37;;;;;;;14.25;6.88;;;436.10;1971.20;;;;;;5418011;26;20031;-75
2024/04/16 02:20:04;;;;;;;15.50;7.15;;;436.10;1996.80;;;;;;5417934;26;20006;-76
2024/04/16 02:22:30;;;;;;;13.50;7.28;;;436.00;1996.80;;;;;;5417499;26;20056;-74
2024/04/16 02:24:56;;;;;;;19.75;7.88;;;436.00;2022.40;;;;;;5417818;26;20007;-74
2024/04/16 02:27:21;;;;;;;12.20;7.53;;;435.80;2073.60;;;;;;5417231;26;20446;-74
2024/04/16 02:29:47;;;;;;;17.73;9.00;;;435.80;2073.60;;;;;;5417637;26;20032;-74
2024/04/16 02:32:13;;;;;;;14.40;7.60;;;435.80;2099.20;;;;;;5415571;26;20007;-76
2024/04/16 02:34:39;;;;;;;13.15;7.63;;;435.50;2073.60;;;;;;5417742;26;19991;-74
2024/04/16 02:37:05;;;;;;;15.05;7.93;;;435.50;2073.60;;;;;;5417410;26;20017;-74
2024/04/16 02:39:31;;;;;;;14.60;7.60;;;435.30;2124.80;;;;;;5417108;26;20006;-76
2024/04/16 02:41:57;;;;;;;14.23;7.57;;;435.30;2124.80;;;;;;5417493;26;20475;-75
2024/04/16 02:44:23;;;;;;;12.35;7.18;;;435.20;2150.40;;;;;;5417220;26;20002;-75
2024/04/16 02:46:49;;;;;;;12.50;6.63;;;410.30;2227.20;;;;;;5417306;26;20073;-74
2024/04/16 02:49:15;;;;;;;12.95;7.15;;;410.20;2176.00;;;;;;5417303;26;20003;-74
2024/04/16 02:51:40;;;;;;;18.15;7.80;;;410.20;2176.00;;;;;;5417401;26;20011;-75
2024/04/16 02:54:06;;;;;;;16.02;8.18;;;410.20;2176.00;;;;;;5416913;26;20000;-76
2024/04/16 02:56:32;;;;;;;17.85;7.82;;;410.30;2176.00;;;;;;5416827;26;20484;-76
2024/04/16 02:58:58;;;;;;;13.10;7.55;;;410.50;2176.00;;;;;;5419239;26;20007;-75
2024/04/16 03:01:24;;;;;;;15.07;7.40;;;410.50;2176.00;;;;;;5411450;26;20024;-74
2024/04/16 03:03:58;;;;;;;16.70;8.07;;;410.30;2201.60;;;;;;5386531;26;20077;-75
2024/04/16 03:06:24;;;;;;;21.33;8.73;;;410.30;2201.60;;;;;;5397261;26;19992;-74
2024/04/16 03:08:53;;;;;;;14.18;7.43;;;410.40;2176.00;;;;;;5397822;26;19996;-76
2024/04/16 03:11:19;;;;;;;17.38;7.22;;;410.00;2227.20;;;;;;5387875;26;19996;-74
2024/04/16 03:13:45;;;;;;;13.35;6.95;;;409.80;2329.60;;;;;;5384963;26;20006;-76
2024/04/16 03:16:11;;;;;;;14.25;6.95;;;410.00;2278.40;;;;;;5384932;26;20335;-74
2024/04/16 03:18:37;;;;;;;18.48;7.65;;;410.10;2278.40;;;;;;5384722;26;20007;-74
2024/04/16 03:21:03;;;;;;;15.13;6.63;;;409.90;2304.00;;;;;;5384947;26;20004;-74
2024/04/16 03:23:29;;;;;;;15.95;6.85;;;410.00;2304.00;;;;;;5384674;26;20033;-75
2024/04/16 03:25:55;;;;;;;13.77;6.57;;;410.00;2304.00;;;;;;5382717;26;20000;-75
2024/04/16 03:28:21;;;;;;;16.35;7.80;;;409.70;2304.00;;;;;;5382801;26;20004;-74
2024/04/16 03:30:47;;;;;;;13.63;7.28;;;409.80;2329.60;;;;;;5384749;26;19996;-74
2024/04/16 03:33:13;;;;;;;13.63;7.55;;;409.90;2329.60;;;;;;5384867;26;20317;-74
2024/04/16 03:35:38;;;;;;;26.33;7.57;;;410.00;2278.40;;;;;;5384477;26;20394;-74
2024/04/16 03:38:04;;;;;;;19.45;7.63;;;410.00;2304.00;;;;;;5382513;26;20008;-74
2024/04/16 03:40:30;;;;;;;15.35;7.43;;;410.10;2329.60;;;;;;5384765;26;20007;-75
2024/04/16 03:42:56;;;;;;;13.80;8.35;;;410.10;2355.20;;;;;;5384530;26;20000;-75
2024/04/16 03:45:22;;;;;;;10.77;6.68;;;410.30;2304.00;;;;;;5384419;26;19996;-74
2024/04/16 03:47:47;;;;;;;14.27;6.78;;;410.40;2329.60;;;;;;5384100;26;20402;-74
2024/04/16 03:50:13;;;;;;;23.60;8.48;;;435.20;2304.00;;;;;;5384430;26;20065;-74
2024/04/16 03:52:39;;;;;;;15.77;7.47;;;435.30;2252.80;;;;;;5384649;26;20008;-76
2024/04/16 03:55:05;;;;;;;13.50;7.30;;;435.30;2278.40;;;;;;5383901;26;20008;-76
2024/04/16 03:57:31;;;;;;;12.10;7.35;;;435.60;2227.20;;;;;;5384303;26;19996;-74
2024/04/16 04:02:41;;;;;;;13.15;7.00;;;435.70;2227.20;;;;;;5384292;26;20007;-73
2024/04/16 04:05:07;;;;;;;20.15;8.20;;;435.90;2201.60;;;;;;5384203;26;19997;-75
2024/04/16 04:07:33;;;;;;;17.95;8.35;;;435.90;2201.60;;;;;;5383955;26;20008;-73
2024/04/16 04:10:00;;;;;;;14.20;8.43;;;436.00;2201.60;;;;;;5383319;26;20019;-73
2024/04/16 04:12:26;;;;;;;18.13;7.90;;;436.10;2201.60;;;;;;5384069;26;20000;-76
2024/04/16 04:14:51;;;;;;;17.17;8.63;;;460.80;2201.60;;;;;;5383997;26;19997;-73
2024/04/16 04:17:17;;;;;;;15.80;8.15;;;460.80;2201.60;;;;;;5383995;26;20003;-74
2024/04/16 04:19:43;;;;;;;14.27;8.40;;;460.80;2227.20;;;;;;5384158;26;20448;-74
2024/04/16 04:22:10;;;;;;;13.43;7.85;;;460.80;2201.60;;;;;;5384255;26;19992;-75
2024/04/16 04:24:35;;;;;;;16.63;8.35;;;460.90;2176.00;;;;;;5383343;26;20011;-73
2024/04/16 04:27:02;;;;;;;16.00;8.32;;;461.00;2124.80;;;;;;5383941;26;19992;-71
2024/04/16 04:29:29;;;;;;;26.00;8.88;;;460.80;2124.80;;;;;;5392738;26;20031;-75
2024/04/16 04:31:55;;;;;;;20.05;8.63;;;460.80;2252.80;;;;;;5401059;26;20081;-72
2024/04/16 04:34:21;;;;;;;20.38;7.75;;;436.10;2201.60;;;;;;5407525;26;20047;-74
2024/04/16 04:36:47;;;;;;;14.48;7.72;;;460.80;2201.60;;;;;;5410037;26;20040;-72
2024/04/16 04:39:13;;;;;;;15.00;8.27;;;460.80;2252.80;;;;;;5406971;26;20000;-73
2024/04/16 04:41:39;;;;;;;16.25;8.73;;;461.00;2227.20;;;;;;5399714;26;20019;-73
2024/04/16 04:44:04;;;;;;;25.90;8.95;;;461.20;2227.20;;;;;;5395503;26;20024;-74
2024/04/16 04:46:30;;;;;;;26.95;8.52;;;461.40;2227.20;;;;;;5403817;26;20014;-73
2024/04/16 04:48:56;;;;;;;21.98;8.27;;;461.40;2227.20;;;;;;5392388;26;20070;-71
2024/04/16 04:51:22;;;;;;;13.68;7.88;;;461.30;2227.20;;;;;;5400904;26;20008;-73
2024/04/16 04:53:48;;;;;;;16.40;7.78;;;461.10;2201.60;;;;;;5395445;26;20007;-73
2024/04/16 04:56:13;;;;;;;18.80;9.18;;;460.80;2227.20;;;;;;5388830;26;20000;-73
2024/04/16 04:58:39;;;;;;;12.32;7.75;;;436.00;2227.20;;;;;;5387939;26;20335;-72
2024/04/16 05:01:05;;;;;;;18.40;7.07;;;435.90;2252.80;;;;;;5407195;26;20010;-73
2024/04/16 05:03:31;;;;;;;12.48;7.20;;;435.90;2227.20;;;;;;5398985;26;20508;-72
2024/04/16 05:05:57;;;;;;;17.08;7.85;;;436.00;2227.20;;;;;;5389067;26;19999;-75
2024/04/16 05:08:26;;;;;;;19.58;8.20;;;460.80;2252.80;;;;;;5408997;26;20011;-72
2024/04/16 05:10:52;;;;;;;19.25;7.55;;;460.80;2252.80;;;;;;5396871;26;20011;-75
2024/04/16 05:13:18;;;;;;;27.45;10.63;;;461.10;2278.40;;;;;;5390689;26;19996;-75
2024/04/16 05:15:47;;;;;;;16.65;8.48;;;461.20;2304.00;;;;;;5405935;26;20518;-71
2024/04/16 05:18:12;;;;;;;17.88;8.32;;;461.40;2329.60;;;;;;5408344;26;20011;-72
2024/04/16 05:20:38;;;;;;;13.65;8.25;;;461.70;2252.80;;;;;;5396479;26;20327;-73
2024/04/16 05:23:04;;;;;;;16.55;7.57;;;486.60;2227.20;;;;;;5389937;26;20000;-73
2024/04/16 05:25:30;;;;;;;21.63;8.60;;;486.80;2124.80;;;;;;5394450;26;20003;-71
2024/04/16 05:27:57;;;;;;;21.45;7.10;;;486.90;2048.00;;;;;;5404977;26;20440;-75
2024/04/16 05:30:22;;;;;;;13.20;6.85;;;487.10;2022.40;;;;;;5386822;26;20069;-74
2024/04/16 05:32:50;;;;;;;18.35;7.53;;;487.10;1996.80;;;;;;5389040;26;20012;-73
2024/04/16 05:35:16;;;;;;;12.70;7.20;;;487.10;1996.80;;;;;;5389156;26;20011;-75
2024/04/16 05:37:42;;;;;;;20.77;8.27;;;487.30;1971.20;;;;;;5400502;26;19996;-72
2024/04/16 05:40:08;;;;;;;12.95;7.63;;;487.30;1996.80;;;;;;5398224;26;20332;-74
2024/04/16 05:42:34;;;;;;;15.52;8.25;;;487.30;1971.20;;;;;;5387933;26;20003;-73
2024/04/16 05:45:00;;;;;;;14.38;7.68;;;487.30;1971.20;;;;;;5388191;26;20000;-73
2024/04/16 05:47:26;;;;;;;18.42;7.93;;;512.00;1945.60;;;;;;5401898;26;20014;-76
2024/04/16 05:49:52;;;;;;;19.83;7.60;;;512.00;1971.20;;;;;;5406256;26;20027;-75
2024/04/16 05:52:18;;;;;;;14.50;7.53;;;512.20;2022.40;;;;;;5369150;26;20000;-74
2024/04/16 05:54:44;;;;;;;21.00;9.07;;;512.50;1996.80;;;;;;5391642;26;20512;-72
2024/04/16 05:57:10;;;;;;;17.65;7.63;;;512.60;1945.60;;;;;;5392196;26;20008;-70
2024/04/16 05:59:36;;;;;;;14.93;7.10;;;512.80;1945.60;;;;;;5392338;26;20008;-70
2024/04/16 06:02:01;;;;;;;22.80;8.38;;;512.90;1920.00;;;;;;5410057;26;20072;-72
2024/04/16 06:04:27;;;;;;;14.30;7.00;;;537.70;1894.40;;;;;;5387193;26;20000;-72
2024/04/16 06:06:53;;;;;;;12.32;6.85;;;537.90;1843.20;;;;;;5400231;26;19996;-73
2024/04/16 06:09:19;;;;;;;15.40;7.00;;;538.00;1894.40;;;;;;5393380;26;19996;-75
2024/04/16 06:11:45;;;;;;;15.05;7.32;;;;;;;;;;5390150;26;20451;-71
2024/04/16 06:14:11;;;;;;;16.42;7.28;;;538.30;1843.20;;;;;;5394424;26;20006;-72
2024/04/16 06:16:37;;;;;;;13.02;7.05;;;538.50;1817.60;;;;;;5395724;26;20315;-72
2024/04/16 06:19:02;;;;;;;12.00;6.72;;;538.50;1817.60;;;;;;5399215;26;20349;-72
2024/04/16 06:21:28;;;;;;;13.38;6.13;;;563.30;1817.60;;;;;;5387924;26;20006;-77
2024/04/16 06:23:54;;;;;;;13.13;6.10;;;563.40;1817.60;;;;;;5402048;26;19992;-74
2024/04/16 06:26:20;;;;;;;26.95;6.95;;;563.50;1792.00;;;;;;5382283;26;20432;-72
2024/04/16 06:28:46;;;;;;;14.23;5.90;;;563.60;1792.00;;;;;;5395210;26;20008;-72
2024/04/16 06:31:12;;;;;;;20.48;7.05;;;563.80;1766.40;;;;;;5405996;26;20003;-73
2024/04/16 06:33:38;;;;;;;17.65;6.15;;;564.00;1740.80;;;;;;5401203;26;19992;-71
2024/04/16 06:36:04;;;;;;;17.23;6.53;;;564.00;1715.20;;;;;;5418822;26;19999;-72
2024/04/16 06:38:31;;;;;;;11.05;5.90;;;588.80;1664.00;;;;;;5403685;26;20015;-77
2024/04/16 06:40:57;;;;;;;12.25;6.13;;;564.10;1664.00;;;;;;5404610;26;20015;-72
2024/04/16 06:43:23;;;;;;;12.93;5.78;;;588.80;1689.60;;;;;;5395073;26;20003;-74
2024/04/16 06:45:48;;;;;;;17.42;6.47;;;589.00;1664.00;;;;;;5409943;26;19995;-71
2024/04/16 06:48:14;;;;;;;10.00;6.07;;;588.90;1689.60;;;;;;5406470;26;20008;-72
2024/04/16 06:50:46;;;;;;;13.30;7.07;;;589.00;1664.00;;;;;;5392969;26;20004;-71
2024/04/16 06:53:12;;;;;;;14.07;6.70;;;589.10;1664.00;;;;;;5398855;26;19997;-73
2024/04/16 06:55:38;;;;;;;16.02;6.60;;;589.20;1664.00;;;;;;5400781;26;20328;-72
2024/04/16 06:58:04;;;;;;;18.23;6.70;;;;;;;;;;5397306;26;20023;-72
2024/04/16 07:00:31;;;;;;;15.77;6.53;;;589.70;1638.40;;;;;;5395796;26;20073;-73
2024/04/16 07:02:57;;;;;;;18.17;8.07;;;614.50;1587.20;;;;;;5393398;26;19988;-72
2024/04/16 07:05:23;;;;;;;20.10;6.68;;;614.70;1612.80;;;;;;5420175;26;19996;-74
2024/04/16 07:07:49;;;;;;;16.42;7.65;;;614.80;1587.20;;;;;;5393393;26;19996;-72
2024/04/16 07:10:15;;;;;;;22.23;7.40;;;615.00;1561.60;;;;;;5403242;26;20466;-71
2024/04/16 07:12:40;;;;;;;14.93;6.40;;;640.00;1536.00;;;;;;5414378;26;20398;-72
2024/04/16 07:15:07;;;;;;;18.70;6.93;;;640.10;1561.60;;;;;;5392947;26;20010;-71
2024/04/16 07:17:32;;;;;;;18.90;6.50;;;640.30;1561.60;;;;;;5393413;26;20026;-72
2024/04/16 07:19:58;;;;;;;17.63;7.00;;;640.40;1510.40;;;;;;5408849;26;19992;-72
2024/04/16 07:22:24;;;;;;;15.25;6.03;;;640.50;1484.80;;;;;;5408180;26;20011;-76
2024/04/16 07:24:50;;;;;;;12.07;6.80;;;640.70;1484.80;;;;;;5401731;26;20000;-73
2024/04/16 07:27:17;;;;;;;20.60;7.15;;;665.70;1484.80;;;;;;5404344;26;20000;-75
2024/04/16 07:29:43;;;;;;;16.73;6.57;;;665.70;1484.80;;;;;;5406377;26;20320;-72
2024/04/16 07:32:09;;;;;;;15.50;7.28;;;666.00;1459.20;;;;;;5404030;26;20004;-72
2024/04/16 07:34:35;;;;;;;15.63;6.97;;;666.20;1459.20;;;;;;5398320;26;20007;-72
2024/04/16 07:37:00;;;;;;;13.15;6.55;;;666.50;1459.20;;;;;;5408074;26;20003;-73
2024/04/16 07:39:26;;;;;;;22.05;7.35;;;691.30;1433.60;;;;;;5401230;26;20078;-72
2024/04/16 07:41:52;;;;;;;15.55;6.97;;;691.30;1382.40;;;;;;5409576;26;20011;-72
2024/04/16 07:44:19;;;;;;;14.63;6.72;;;691.30;1382.40;;;;;;5400802;26;20435;-72
2024/04/16 07:46:46;;;;;;;14.90;6.30;;;691.70;1356.80;;;;;;5388523;26;19992;-73
2024/04/16 07:49:12;;;;;;;13.68;5.80;;;691.40;1382.40;;;;;;5387612;26;20459;-72
2024/04/16 07:51:38;;;;;;;16.80;6.80;;;691.30;1356.80;;;;;;5394798;26;20589;-72
2024/04/16 07:54:04;;;;;;;13.65;6.35;;;691.40;1356.80;;;;;;5397014;26;20596;-72
2024/04/16 07:56:30;;;;;;;23.85;6.93;;;691.80;1331.20;;;;;;5402099;26;20451;-71
2024/04/16 07:58:56;;;;;;;22.60;6.38;;;691.90;1305.60;;;;;;5411512;26;20073;-73
2024/04/16 08:01:21;;;;;;;14.88;6.55;;;692.10;1305.60;;;;;;5400678;26;19992;-71
2024/04/16 08:03:47;;;;;;;18.15;6.80;;;692.00;1280.00;;;;;;5402741;26;20365;-75
2024/04/16 08:06:13;;;;;;;22.77;7.13;;;716.80;1331.20;;;;;;5396302;26;20065;-71
2024/04/16 08:08:39;;;;;;;18.65;6.82;;;692.10;1280.00;;;;;;5393109;26;20009;-71
2024/04/16 08:11:11;;;;;;;21.05;7.97;;;691.80;1305.60;;;;;;5398580;26;20072;-72
2024/04/16 08:13:38;;;;;;;21.80;7.38;;;691.60;1331.20;;;;;;5396277;26;20388;-72
2024/04/16 08:16:04;;;;;;;21.42;6.57;;;691.50;1331.20;;;;;;5401482;26;20011;-71
2024/04/16 08:18:30;;;;;;;18.05;5.78;;;691.60;1305.60;;;;;;5401628;26;19996;-73
2024/04/16 08:20:56;;;;;;;18.70;6.60;;;691.50;1254.40;;;;;;5394177;26;20068;-72
2024/04/16 08:23:22;;;;;;;12.52;5.85;;;691.40;1254.40;;;;;;5404771;26;19999;-72
2024/04/16 08:26:07;;;;;;;12.75;5.35;;;691.50;1228.80;;;;;;5396206;26;20012;-71
2024/04/16 08:28:33;;;;;;;13.88;5.85;;;691.60;1203.20;;;;;;5395212;26;20027;-77
2024/04/16 08:31:02;;;;;;;14.65;5.65;;;691.80;1177.60;;;;;;5405572;26;20004;-71
2024/04/16 08:33:28;;;;;;;12.05;5.32;;;691.80;1203.20;;;;;;5395625;26;20000;-73
2024/04/16 08:35:54;;;;;;;15.35;6.53;;;692.10;1228.80;;;;;;5396862;26;20007;-71
2024/04/16 08:38:20;;;;;;;15.90;6.43;;;716.80;1280.00;;;;;;5397541;26;20083;-75
2024/04/16 08:40:47;;;;;;;13.35;5.72;;;716.80;1254.40;;;;;;5393067;26;20005;-76
2024/04/16 08:43:13;;;;;;;14.30;6.30;;;717.20;1177.60;;;;;;5398714;26;20420;-72
2024/04/16 08:45:43;;;;;;;11.45;6.18;;;742.40;1203.20;;;;;;5389492;26;20051;-78
2024/04/16 08:48:09;;;;;;;18.27;5.68;;;742.80;1203.20;;;;;;5388026;26;20004;-71
2024/04/16 08:50:36;;;;;;;13.68;4.80;;;742.50;1254.40;;;;;;5407731;26;20007;-71
2024/04/16 08:53:03;;;;;;;12.50;4.93;;;742.60;1203.20;;;;;;5396702;26;20000;-71
2024/04/16 08:55:32;;;;;;;16.95;5.40;;;742.40;1203.20;;;;;;5395515;26;20010;-72
2024/04/16 08:57:58;;;;;;;11.15;6.43;;;742.90;1152.00;;;;;;5400625;26;20044;-69
2024/04/16 09:00:24;;;;;;;9.07;4.50;;;743.10;1126.40;;;;;;5398803;26;19996;-73
2024/04/16 09:02:52;;;;;;;14.20;5.00;;;743.30;1075.20;;;;;;5386918;26;20012;-70
2024/04/16 09:05:19;;;;;;;12.27;4.65;;;768.10;1049.60;;;;;;5406073;26;20000;-70
2024/04/16 09:07:46;;;;;;;9.77;4.40;;;768.40;1049.60;;;;;;5406163;26;20449;-72
2024/04/16 09:10:25;;;;;;;11.18;4.72;;;768.60;1024.00;;;;;;5392547;26;20007;-72
2024/04/16 09:12:53;;;;;;;6.50;4.30;;;768.60;1024.00;;;;;;5405090;26;20073;-71
2024/04/16 09:15:20;;;;;;;11.38;4.60;;;793.70;1049.60;;;;;;5397291;26;20019;-71
2024/04/16 09:17:46;;;;;;;13.48;4.80;;;793.80;1024.00;;;;;;5411143;26;20004;-77
2024/04/16 09:20:21;;;;;;;10.18;4.63;;;793.60;1024.00;;;;;;5390543;26;20489;-73
2024/04/16 09:22:51;;;;;;;10.38;4.97;;;793.70;998.40;;;;;;5399831;26;20017;-72
2024/04/16 09:25:21;;;;;;;22.65;5.45;;;793.70;998.40;;;;;;5391473;26;19997;-71
2024/04/16 09:27:47;;;;;;;11.68;5.10;;;793.70;998.40;;;;;;5400085;26;20286;-71
2024/04/16 09:30:14;;;;;;;11.85;4.50;;;793.60;998.40;;;;;;5398705;26;20019;-72
2024/04/16 09:32:46;;;;;;;12.90;4.93;;;793.80;998.40;;;;;;5411032;26;20080;-71
2024/04/16 09:35:15;;;;;;;9.38;4.82;;;794.00;998.40;;;;;;5407246;26;20010;-71
2024/04/16 09:37:42;;;;;;;16.77;6.53;;;794.10;998.40;;;;;;5403717;26;19995;-71
2024/04/16 09:40:08;;;;;;;10.52;5.32;;;794.20;998.40;;;;;;5410285;26;20015;-71
2024/04/16 09:42:36;;;;;;;10.48;4.68;;;794.20;972.80;;;;;;5402417;26;19995;-71
2024/04/16 09:45:04;;;;;;;17.35;6.35;;;794.50;972.80;;;;;;5406754;26;20006;-72
2024/04/16 09:47:31;;;;;;;10.93;5.25;;;794.40;972.80;;;;;;5402903;26;20000;-71
2024/04/16 09:49:58;;;;;;;12.52;5.05;;;794.50;998.40;;;;;;5398967;26;20438;-72
2024/04/16 09:52:25;;;;;;;11.75;5.65;;;819.20;998.40;;;;;;5402758;26;19996;-70
2024/04/16 09:54:54;;;;;;;14.13;5.22;;;819.20;972.80;;;;;;5404594;26;20023;-74
2024/04/16 09:57:23;;;;;;;12.05;5.22;;;819.60;998.40;;;;;;5400693;26;20023;-72
2024/04/16 09:59:52;;;;;;;13.50;5.45;;;819.60;972.80;;;;;;5399588;26;20024;-72
2024/04/16 10:02:21;;;;;;;12.70;5.75;;;819.60;972.80;;;;;;5390680;26;20015;-72
2024/04/16 10:04:48;;;;;;;15.93;5.97;;;819.80;947.20;;;;;;5394572;26;20000;-71
2024/04/16 10:07:15;;;;;;;12.70;5.63;;;820.00;972.80;;;;;;5389720;26;20004;-72
2024/04/16 10:09:41;;;;;;;18.55;6.28;;;820.10;947.20;;;;;;5397354;26;20444;-71
2024/04/16 10:12:08;;;;;;;11.75;6.85;;;820.10;972.80;;;;;;5402617;26;20029;-77
2024/04/16 10:14:35;;;;;;;15.18;5.78;;;819.80;972.80;;;;;;5399755;26;20011;-73
2024/04/16 10:17:01;;;;;;;18.60;5.93;;;819.60;972.80;;;;;;5395422;26;19996;-78
2024/04/16 10:19:31;;;;;;;16.67;6.72;;;819.80;947.20;;;;;;5410399;26;19999;-71
2024/04/16 10:22:03;;;;;;;12.27;5.97;;;819.80;972.80;;;;;;5390863;26;20004;-71
2024/04/16 10:24:32;;;;;;;21.33;6.72;;;819.30;998.40;;;;;;5398675;26;20073;-71
2024/04/16 10:26:59;;;;;;;16.52;6.55;;;819.80;972.80;;;;;;5400512;26;20319;-70
2024/04/16 10:29:25;;;;;;;17.65;6.68;;;819.20;998.40;;;;;;5388618;26;20036;-71
2024/04/16 10:31:53;;;;;;;26.67;7.00;;;794.00;1024.00;;;;;;5402991;26;20011;-70
2024/04/16 10:34:26;;;;;;;16.23;6.90;;;793.90;1049.60;;;;;;5395939;26;20000;-72
2024/04/16 10:36:55;;;;;;;35.38;9.00;;;793.70;1100.80;;;;;;5399686;26;20000;-72
2024/04/16 10:39:28;;;;;;;17.63;7.20;;;794.40;1049.60;;;;;;5401848;26;19999;-71
2024/04/16 10:41:57;;;;;;;20.63;6.78;;;794.50;1024.00;;;;;;5388821;26;20319;-70
2024/04/16 10:44:23;;;;;;;20.15;6.32;;;793.90;1075.20;;;;;;5398303;26;20048;-77
2024/04/16 10:46:51;;;;;;;27.60;7.75;;;793.80;1075.20;;;;;;5394788;26;20378;-70
2024/04/16 10:49:18;;;;;;;16.85;7.65;;;768.90;1049.60;;;;;;5405121;26;20011;-73
2024/04/16 10:51:46;;;;;;;22.48;6.70;;;768.60;1075.20;;;;;;5387156;26;19996;-70
2024/04/16 10:54:12;;;;;;;22.50;6.38;;;768.40;1126.40;;;;;;5404877;26;20065;-74
2024/04/16 10:56:39;;;;;;;14.55;5.15;;;768.00;1152.00;;;;;;5404305;26;20317;-70
2024/04/16 10:59:06;;;;;;;19.45;5.93;;;743.10;1152.00;;;;;;5407694;26;20008;-72
2024/04/16 11:01:42;;;;;;;25.20;6.18;;;743.00;1177.60;;;;;;5404468;26;20004;-71
2024/04/16 11:04:12;;;;;;;17.45;5.57;;;742.80;1152.00;;;;;;5404027;26;20011;-72
2024/04/16 11:06:41;;;;;;;14.30;5.70;;;742.60;1203.20;;;;;;5395031;26;20035;-71
2024/04/16 11:09:07;;;;;;;11.73;5.47;;;742.40;1203.20;;;;;;5395726;26;19997;-73
2024/04/16 11:11:34;;;;;;;18.30;6.18;;;717.70;1177.60;;;;;;5393097;26;20012;-75
2024/04/16 11:14:01;;;;;;;17.52;6.72;;;717.50;1203.20;;;;;;5408593;26;20039;-70
2024/04/16 11:16:28;;;;;;;20.67;6.18;;;717.50;1203.20;;;;;;5411396;26;20008;-71
2024/04/16 11:18:55;;;;;;;26.20;7.20;;;717.50;1228.80;;;;;;5401304;26;20421;-71
2024/04/16 11:21:22;;;;;;;30.80;8.52;;;717.50;1331.20;;;;;;5395620;26;20439;-70
2024/04/16 11:23:49;;;;;;;19.05;5.63;;;717.40;1433.60;;;;;;5410086;26;20028;-70
2024/04/16 11:26:15;;;;;;;27.85;7.53;;;717.10;1510.40;;;;;;5411614;26;20000;-70
2024/04/16 11:28:41;;;;;;;24.65;7.13;;;692.10;1536.00;;;;;;5404506;26;20424;-71
2024/04/16 11:31:07;;;;;;;17.38;7.75;;;691.90;1587.20;;;;;;5399972;26;20700;-75
2024/04/16 11:33:34;;;;;;;15.80;5.93;;;691.80;1638.40;;;;;;5388833;26;20311;-74
2024/04/16 11:36:10;;;;;;;15.93;5.60;;;742.40;1612.80;;;;;;5400417;26;19992;-72
2024/04/16 11:38:36;;;;;;;22.80;7.70;;;717.10;1561.60;;;;;;5402570;26;20008;-70
2024/04/16 11:41:03;;;;;;;20.15;7.80;;;717.30;1561.60;;;;;;5413694;26;20101;-71
2024/04/16 11:43:39;;;;;;;20.92;6.47;;;742.40;1561.60;;;;;;5397595;26;20068;-72
2024/04/16 11:46:07;;;;;;;20.23;5.53;;;717.70;1536.00;;;;;;5392038;26;20004;-74
2024/04/16 11:48:34;;;;;;;45.45;7.13;;;717.40;1433.60;;;;;;5401476;26;19996;-72
2024/04/16 11:51:01;;;;;;;25.65;8.23;;;717.70;1408.00;;;;;;5396221;26;19999;-70
2024/04/16 11:53:27;;;;;;;14.27;6.82;;;742.60;1459.20;;;;;;5408285;26;20014;-71
2024/04/16 11:55:52;;;;;;;22.65;6.85;;;742.90;1433.60;;;;;;5399366;26;20003;-77
2024/04/16 11:58:18;;;;;;;26.33;6.78;;;743.00;1382.40;;;;;;5396797;26;20440;-75
2024/04/16 12:00:44;;;;;;;21.48;6.63;;;742.90;1433.60;;;;;;5415586;26;20014;-71
2024/04/16 12:03:10;;;;;;;17.50;5.47;;;742.40;1459.20;;;;;;5411349;26;20000;-71
2024/04/16 12:05:36;;;;;;;17.50;5.55;;;717.40;1459.20;;;;;;5404806;26;19999;-71
2024/04/16 12:08:02;;;;;;;20.75;6.78;;;716.80;1433.60;;;;;;5398780;26;20019;-72
2024/04/16 12:10:29;;;;;;;21.15;5.97;;;716.80;1484.80;;;;;;5400103;26;20532;-71